sensor_id;sensor_type;location;lat;lon;timestamp;pressure;altitude;pressure_sealevel;temperature;humidity
35806;BME280;21925;44.608;11.580;2023-06-14T00:01:44;101034.31;;;23.01;100.00
35806;BME280;21925;44.608;11.580;2023-06-14T00:04:14;101033.56;;;22.97;100.00
35806;BME280;21925;44.608;11.580;2023-06-14T00:06:42;101037.53;;;22.73;100.00
35806;BME280;21925;44.608;11.580;2023-06-14T00:09:11;101031.28;;;22.62;100.00
35806;BME280;21925;44.608;11.580;2023-06-14T00:11:39;101042.81;;;22.94;100.00
35806;BME280;21925;44.608;11.580;2023-06-14T00:14:05;101026.88;;;22.91;100.00
35806;BME280;21925;44.608;11.580;2023-06-14T00:16:31;101030.06;;;22.93;100.00
35806;BME280;21925;44.608;11.580;2023-06-14T00:18:58;101033.41;;;22.81;100.00
35806;BME280;21925;44.608;11.580;2023-06-14T00:21:23;101042.69;;;22.48;100.00
35806;BME280;21925;44.608;11.580;2023-06-14T00:23:49;101028.09;;;22.63;100.00
35806;BME280;21925;44.608;11.580;2023-06-14T00:26:15;101042.84;;;22.90;100.00
35806;BME280;21925;44.608;11.580;2023-06-14T00:28:42;101020.66;;;22.80;100.00
35806;BME280;21925;44.608;11.580;2023-06-14T00:31:07;101031.47;;;22.78;100.00
35806;BME280;21925;44.608;11.580;2023-06-14T00:33:33;101026.34;;;22.73;100.00
35806;BME280;21925;44.608;11.580;2023-06-14T00:35:59;101032.53;;;22.87;100.00
35806;BME280;21925;44.608;11.580;2023-06-14T00:38:24;101031.50;;;22.48;100.00
35806;BME280;21925;44.608;11.580;2023-06-14T00:40:50;101034.13;;;22.29;100.00
35806;BME280;21925;44.608;11.580;2023-06-14T00:43:16;101030.13;;;22.33;100.00
35806;BME280;21925;44.608;11.580;2023-06-14T00:45:42;101026.13;;;22.34;100.00
35806;BME280;21925;44.608;11.580;2023-06-14T00:48:08;101031.28;;;22.62;100.00
35806;BME280;21925;44.608;11.580;2023-06-14T00:50:34;101021.41;;;22.24;100.00
35806;BME280;21925;44.608;11.580;2023-06-14T00:53:02;101028.47;;;22.36;100.00
35806;BME280;21925;44.608;11.580;2023-06-14T00:55:28;101021.75;;;22.30;100.00
35806;BME280;21925;44.608;11.580;2023-06-14T00:57:55;101023.34;;;22.60;100.00
35806;BME280;21925;44.608;11.580;2023-06-14T01:00:21;101014.78;;;22.71;100.00
35806;BME280;21925;44.608;11.580;2023-06-14T01:02:47;101027.94;;;22.74;100.00
35806;BME280;21925;44.608;11.580;2023-06-14T01:05:15;101015.88;;;22.80;100.00
35806;BME280;21925;44.608;11.580;2023-06-14T01:07:57;101014.22;;;22.83;100.00
35806;BME280;21925;44.608;11.580;2023-06-14T01:11:02;101000.03;;;22.44;100.00
35806;BME280;21925;44.608;11.580;2023-06-14T01:13:39;101012.22;;;22.27;100.00
35806;BME280;21925;44.608;11.580;2023-06-14T01:16:08;101000.84;;;22.11;100.00
35806;BME280;21925;44.608;11.580;2023-06-14T01:18:34;100992.19;;;22.02;100.00
35806;BME280;21925;44.608;11.580;2023-06-14T01:21:01;100996.66;;;22.26;100.00
35806;BME280;21925;44.608;11.580;2023-06-14T01:23:31;100999.59;;;22.46;100.00
35806;BME280;21925;44.608;11.580;2023-06-14T01:25:59;100988.69;;;22.54;100.00
35806;BME280;21925;44.608;11.580;2023-06-14T01:28:26;100994.56;;;22.63;100.00
35806;BME280;21925;44.608;11.580;2023-06-14T01:30:59;100987.81;;;22.31;100.00
35806;BME280;21925;44.608;11.580;2023-06-14T01:33:27;100987.34;;;22.06;100.00
35806;BME280;21925;44.608;11.580;2023-06-14T01:35:56;100981.84;;;21.99;100.00
35806;BME280;21925;44.608;11.580;2023-06-14T01:38:25;100989.41;;;22.02;100.00
35806;BME280;21925;44.608;11.580;2023-06-14T01:40:53;100982.22;;;22.01;100.00
35806;BME280;21925;44.608;11.580;2023-06-14T01:43:19;100988.38;;;21.86;100.00
35806;BME280;21925;44.608;11.580;2023-06-14T01:45:47;100982.88;;;22.12;100.00
35806;BME280;21925;44.608;11.580;2023-06-14T01:48:13;100983.81;;;22.32;100.00
35806;BME280;21925;44.608;11.580;2023-06-14T01:50:39;100971.72;;;22.12;100.00
35806;BME280;21925;44.608;11.580;2023-06-14T01:53:07;100985.84;;;21.98;100.00
35806;BME280;21925;44.608;11.580;2023-06-14T01:55:36;100996.47;;;21.77;100.00
35806;BME280;21925;44.608;11.580;2023-06-14T01:58:09;100997.22;;;21.44;100.00
35806;BME280;21925;44.608;11.580;2023-06-14T02:00:35;100998.84;;;21.38;100.00
35806;BME280;21925;44.608;11.580;2023-06-14T02:03:01;100997.34;;;21.70;100.00
35806;BME280;21925;44.608;11.580;2023-06-14T02:05:29;100987.25;;;21.43;100.00
35806;BME280;21925;44.608;11.580;2023-06-14T02:07:55;100984.13;;;21.38;100.00
35806;BME280;21925;44.608;11.580;2023-06-14T02:10:21;100994.53;;;21.30;100.00
35806;BME280;21925;44.608;11.580;2023-06-14T02:12:47;100987.41;;;21.69;100.00
35806;BME280;21925;44.608;11.580;2023-06-14T02:15:13;100995.84;;;21.96;100.00
35806;BME280;21925;44.608;11.580;2023-06-14T02:17:46;100987.22;;;22.13;100.00
35806;BME280;21925;44.608;11.580;2023-06-14T02:20:16;100975.34;;;22.09;100.00
35806;BME280;21925;44.608;11.580;2023-06-14T02:22:42;100976.53;;;22.08;100.00
35806;BME280;21925;44.608;11.580;2023-06-14T02:27:34;100975.25;;;22.16;100.00
35806;BME280;21925;44.608;11.580;2023-06-14T02:30:00;100964.81;;;22.20;100.00
35806;BME280;21925;44.608;11.580;2023-06-14T02:32:26;100974.31;;;22.26;100.00
35806;BME280;21925;44.608;11.580;2023-06-14T02:34:53;100986.31;;;22.23;100.00
35806;BME280;21925;44.608;11.580;2023-06-14T02:37:19;100983.66;;;22.13;100.00
35806;BME280;21925;44.608;11.580;2023-06-14T02:39:45;100977.88;;;21.97;100.00
35806;BME280;21925;44.608;11.580;2023-06-14T02:42:11;100979.84;;;22.00;100.00
35806;BME280;21925;44.608;11.580;2023-06-14T02:44:37;100972.34;;;21.93;100.00
35806;BME280;21925;44.608;11.580;2023-06-14T02:47:03;100963.25;;;21.86;100.00
35806;BME280;21925;44.608;11.580;2023-06-14T02:49:30;100970.38;;;21.57;100.00
35806;BME280;21925;44.608;11.580;2023-06-14T02:51:55;100972.03;;;21.55;100.00
35806;BME280;21925;44.608;11.580;2023-06-14T02:54:21;100980.88;;;21.43;100.00
35806;BME280;21925;44.608;11.580;2023-06-14T02:56:47;100976.63;;;21.71;100.00
35806;BME280;21925;44.608;11.580;2023-06-14T02:59:12;100973.75;;;21.78;100.00
35806;BME280;21925;44.608;11.580;2023-06-14T03:01:40;100974.38;;;21.89;100.00
35806;BME280;21925;44.608;11.580;2023-06-14T03:04:09;100983.69;;;21.79;100.00
35806;BME280;21925;44.608;11.580;2023-06-14T03:06:38;100976.44;;;21.85;100.00
35806;BME280;21925;44.608;11.580;2023-06-14T03:09:05;100965.75;;;21.80;100.00
35806;BME280;21925;44.608;11.580;2023-06-14T03:11:33;100975.06;;;21.67;100.00
35806;BME280;21925;44.608;11.580;2023-06-14T03:14:00;100979.81;;;21.30;100.00
35806;BME280;21925;44.608;11.580;2023-06-14T03:16:26;100979.13;;;21.19;100.00
35806;BME280;21925;44.608;11.580;2023-06-14T03:18:55;100971.03;;;20.91;100.00
35806;BME280;21925;44.608;11.580;2023-06-14T03:21:24;100974.09;;;20.49;100.00
35806;BME280;21925;44.608;11.580;2023-06-14T03:23:51;100970.84;;;20.58;100.00
35806;BME280;21925;44.608;11.580;2023-06-14T03:26:18;100971.94;;;20.71;100.00
35806;BME280;21925;44.608;11.580;2023-06-14T03:28:48;100974.88;;;20.46;100.00
35806;BME280;21925;44.608;11.580;2023-06-14T03:31:15;100984.94;;;20.33;100.00
35806;BME280;21925;44.608;11.580;2023-06-14T03:33:42;100976.94;;;20.39;100.00
35806;BME280;21925;44.608;11.580;2023-06-14T03:36:08;100975.22;;;20.55;100.00
35806;BME280;21925;44.608;11.580;2023-06-14T03:38:34;100959.78;;;20.47;100.00
35806;BME280;21925;44.608;11.580;2023-06-14T03:41:01;100971.88;;;20.81;100.00
35806;BME280;21925;44.608;11.580;2023-06-14T03:43:27;100964.69;;;20.84;100.00
35806;BME280;21925;44.608;11.580;2023-06-14T03:45:53;100973.31;;;20.99;100.00
35806;BME280;21925;44.608;11.580;2023-06-14T03:48:21;100982.22;;;21.28;100.00
35806;BME280;21925;44.608;11.580;2023-06-14T03:50:47;100983.22;;;21.48;100.00
35806;BME280;21925;44.608;11.580;2023-06-14T03:53:13;100979.00;;;21.29;100.00
35806;BME280;21925;44.608;11.580;2023-06-14T03:55:41;100981.31;;;20.97;100.00
35806;BME280;21925;44.608;11.580;2023-06-14T03:58:07;100977.00;;;20.86;100.00
35806;BME280;21925;44.608;11.580;2023-06-14T04:00:35;100984.28;;;20.73;100.00
35806;BME280;21925;44.608;11.580;2023-06-14T04:03:01;100994.59;;;20.73;100.00
35806;BME280;21925;44.608;11.580;2023-06-14T04:05:29;100994.41;;;20.43;100.00
35806;BME280;21925;44.608;11.580;2023-06-14T04:07:55;100998.97;;;20.77;100.00
35806;BME280;21925;44.608;11.580;2023-06-14T04:10:22;101002.06;;;20.89;100.00
35806;BME280;21925;44.608;11.580;2023-06-14T04:12:48;101002.56;;;21.25;100.00
35806;BME280;21925;44.608;11.580;2023-06-14T04:15:16;101010.78;;;21.42;100.00
35806;BME280;21925;44.608;11.580;2023-06-14T04:17:43;101004.69;;;21.51;100.00
35806;BME280;21925;44.608;11.580;2023-06-14T04:20:09;101006.25;;;21.59;100.00
35806;BME280;21925;44.608;11.580;2023-06-14T04:22:35;101006.75;;;21.47;100.00
35806;BME280;21925;44.608;11.580;2023-06-14T04:25:03;101001.50;;;21.56;100.00
35806;BME280;21925;44.608;11.580;2023-06-14T04:27:32;100996.03;;;21.42;100.00
35806;BME280;21925;44.608;11.580;2023-06-14T04:30:02;101010.44;;;21.37;100.00
35806;BME280;21925;44.608;11.580;2023-06-14T04:32:38;100996.97;;;21.25;100.00
35806;BME280;21925;44.608;11.580;2023-06-14T04:35:08;101012.91;;;21.28;100.00
35806;BME280;21925;44.608;11.580;2023-06-14T04:37:36;101017.53;;;21.45;100.00
35806;BME280;21925;44.608;11.580;2023-06-14T04:40:07;101028.19;;;21.57;100.00
35806;BME280;21925;44.608;11.580;2023-06-14T04:42:35;101012.09;;;21.31;100.00
35806;BME280;21925;44.608;11.580;2023-06-14T04:45:04;101028.91;;;21.20;100.00
35806;BME280;21925;44.608;11.580;2023-06-14T04:47:30;101028.06;;;21.27;100.00
35806;BME280;21925;44.608;11.580;2023-06-14T04:49:59;101031.63;;;21.31;100.00
35806;BME280;21925;44.608;11.580;2023-06-14T04:52:29;101033.63;;;21.27;100.00
35806;BME280;21925;44.608;11.580;2023-06-14T04:54:56;101038.44;;;21.26;100.00
35806;BME280;21925;44.608;11.580;2023-06-14T04:57:23;101028.81;;;21.31;100.00
35806;BME280;21925;44.608;11.580;2023-06-14T04:59:55;101029.72;;;21.21;100.00
35806;BME280;21925;44.608;11.580;2023-06-14T05:02:22;101034.41;;;21.31;100.00
35806;BME280;21925;44.608;11.580;2023-06-14T05:04:53;101042.94;;;21.57;100.00
35806;BME280;21925;44.608;11.580;2023-06-14T05:07:19;101046.78;;;21.70;100.00
35806;BME280;21925;44.608;11.580;2023-06-14T05:09:47;101044.41;;;21.68;100.00
35806;BME280;21925;44.608;11.580;2023-06-14T05:12:14;101052.28;;;21.77;100.00
35806;BME280;21925;44.608;11.580;2023-06-14T05:14:44;101041.28;;;22.00;100.00
35806;BME280;21925;44.608;11.580;2023-06-14T05:17:09;101047.28;;;21.98;100.00
35806;BME280;21925;44.608;11.580;2023-06-14T05:19:35;101055.44;;;21.82;100.00
35806;BME280;21925;44.608;11.580;2023-06-14T05:22:01;101051.59;;;21.69;100.00
35806;BME280;21925;44.608;11.580;2023-06-14T05:24:28;101054.69;;;21.78;100.00
35806;BME280;21925;44.608;11.580;2023-06-14T05:26:57;101051.34;;;21.90;100.00
35806;BME280;21925;44.608;11.580;2023-06-14T05:29:23;101049.03;;;21.85;100.00
35806;BME280;21925;44.608;11.580;2023-06-14T05:31:49;101058.66;;;21.81;100.00
35806;BME280;21925;44.608;11.580;2023-06-14T05:34:15;101064.88;;;21.95;100.00
35806;BME280;21925;44.608;11.580;2023-06-14T05:36:41;101043.66;;;22.01;100.00
35806;BME280;21925;44.608;11.580;2023-06-14T05:39:07;101039.28;;;22.00;100.00
35806;BME280;21925;44.608;11.580;2023-06-14T05:41:34;101053.66;;;21.99;100.00
35806;BME280;21925;44.608;11.580;2023-06-14T05:44:00;101027.75;;;21.95;100.00
35806;BME280;21925;44.608;11.580;2023-06-14T05:46:25;101045.97;;;22.06;100.00
35806;BME280;21925;44.608;11.580;2023-06-14T05:48:52;101033.78;;;22.23;100.00
35806;BME280;21925;44.608;11.580;2023-06-14T05:51:18;101048.53;;;22.57;100.00
35806;BME280;21925;44.608;11.580;2023-06-14T05:53:51;101055.34;;;22.56;100.00
35806;BME280;21925;44.608;11.580;2023-06-14T05:56:19;101052.59;;;22.52;100.00
35806;BME280;21925;44.608;11.580;2023-06-14T05:58:45;101054.56;;;22.55;100.00
35806;BME280;21925;44.608;11.580;2023-06-14T06:01:11;101042.97;;;22.83;100.00
35806;BME280;21925;44.608;11.580;2023-06-14T06:03:38;101011.56;;;22.46;100.00
35806;BME280;21925;44.608;11.580;2023-06-14T06:06:05;101043.50;;;22.75;100.00
35806;BME280;21925;44.608;11.580;2023-06-14T06:08:33;101044.50;;;22.61;100.00
35806;BME280;21925;44.608;11.580;2023-06-14T06:10:58;101038.69;;;22.75;100.00
35806;BME280;21925;44.608;11.580;2023-06-14T06:13:25;101027.94;;;22.74;100.00
35806;BME280;21925;44.608;11.580;2023-06-14T06:15:51;101048.47;;;23.17;100.00
35806;BME280;21925;44.608;11.580;2023-06-14T06:18:17;101052.84;;;23.18;100.00
35806;BME280;21925;44.608;11.580;2023-06-14T06:20:43;101050.19;;;23.07;100.00
35806;BME280;21925;44.608;11.580;2023-06-14T06:23:09;101046.78;;;22.96;100.00
35806;BME280;21925;44.608;11.580;2023-06-14T06:25:35;101052.66;;;23.05;100.00
35806;BME280;21925;44.608;11.580;2023-06-14T06:28:01;101048.09;;;23.15;100.00
35806;BME280;21925;44.608;11.580;2023-06-14T06:30:27;101055.16;;;23.23;100.00
35806;BME280;21925;44.608;11.580;2023-06-14T06:32:52;101048.81;;;23.19;100.00
35806;BME280;21925;44.608;11.580;2023-06-14T06:35:18;101064.44;;;23.16;100.00
35806;BME280;21925;44.608;11.580;2023-06-14T06:37:44;101063.28;;;23.14;100.00
35806;BME280;21925;44.608;11.580;2023-06-14T06:40:11;101063.75;;;23.35;100.00
35806;BME280;21925;44.608;11.580;2023-06-14T06:42:38;101070.13;;;23.35;100.00
35806;BME280;21925;44.608;11.580;2023-06-14T06:45:05;101058.06;;;23.61;100.00
35806;BME280;21925;44.608;11.580;2023-06-14T06:47:31;101063.81;;;23.77;100.00
35806;BME280;21925;44.608;11.580;2023-06-14T06:50:01;101061.09;;;23.93;100.00
35806;BME280;21925;44.608;11.580;2023-06-14T06:52:27;101061.25;;;24.06;100.00
35806;BME280;21925;44.608;11.580;2023-06-14T06:54:52;101065.00;;;24.18;100.00
35806;BME280;21925;44.608;11.580;2023-06-14T06:57:20;101055.72;;;24.21;100.00
35806;BME280;21925;44.608;11.580;2023-06-14T06:59:48;101075.69;;;24.23;100.00
35806;BME280;21925;44.608;11.580;2023-06-14T07:02:15;101082.81;;;24.67;100.00
35806;BME280;21925;44.608;11.580;2023-06-14T07:04:40;101060.19;;;24.74;100.00
35806;BME280;21925;44.608;11.580;2023-06-14T07:07:07;101052.84;;;24.44;100.00
35806;BME280;21925;44.608;11.580;2023-06-14T07:09:35;101081.28;;;24.97;100.00
35806;BME280;21925;44.608;11.580;2023-06-14T07:12:01;101034.22;;;24.89;100.00
35806;BME280;21925;44.608;11.580;2023-06-14T07:14:26;101078.19;;;25.27;99.95
35806;BME280;21925;44.608;11.580;2023-06-14T07:16:52;101068.69;;;25.53;97.87
35806;BME280;21925;44.608;11.580;2023-06-14T07:19:18;101065.28;;;25.78;95.38
35806;BME280;21925;44.608;11.580;2023-06-14T07:21:44;101091.22;;;26.26;93.37
35806;BME280;21925;44.608;11.580;2023-06-14T07:24:10;101093.09;;;26.45;92.33
35806;BME280;21925;44.608;11.580;2023-06-14T07:26:36;101084.16;;;26.74;91.08
35806;BME280;21925;44.608;11.580;2023-06-14T07:29:02;101089.81;;;27.24;89.05
35806;BME280;21925;44.608;11.580;2023-06-14T07:31:27;101089.63;;;28.11;88.73
35806;BME280;21925;44.608;11.580;2023-06-14T07:33:53;101092.75;;;28.26;84.83
35806;BME280;21925;44.608;11.580;2023-06-14T07:36:19;101085.41;;;27.94;83.67
35806;BME280;21925;44.608;11.580;2023-06-14T07:38:45;101088.88;;;27.77;83.87
35806;BME280;21925;44.608;11.580;2023-06-14T07:41:11;101091.59;;;28.02;83.90
35806;BME280;21925;44.608;11.580;2023-06-14T07:43:37;101087.69;;;28.21;82.63
35806;BME280;21925;44.608;11.580;2023-06-14T07:46:03;101078.66;;;28.47;81.00
35806;BME280;21925;44.608;11.580;2023-06-14T07:48:29;101088.69;;;29.00;78.22
35806;BME280;21925;44.608;11.580;2023-06-14T07:50:54;101084.19;;;29.11;76.62
35806;BME280;21925;44.608;11.580;2023-06-14T07:53:20;101077.69;;;29.32;76.24
35806;BME280;21925;44.608;11.580;2023-06-14T07:55:47;101085.78;;;29.21;74.89
35806;BME280;21925;44.608;11.580;2023-06-14T07:58:14;101104.72;;;29.42;73.63
35806;BME280;21925;44.608;11.580;2023-06-14T08:00:39;101098.09;;;30.20;74.16
35806;BME280;21925;44.608;11.580;2023-06-14T08:03:05;101094.75;;;29.86;72.68
35806;BME280;21925;44.608;11.580;2023-06-14T08:05:33;101093.97;;;29.28;73.50
35806;BME280;21925;44.608;11.580;2023-06-14T08:08:00;101088.63;;;29.21;74.55
35806;BME280;21925;44.608;11.580;2023-06-14T08:10:26;101100.31;;;29.41;72.62
35806;BME280;21925;44.608;11.580;2023-06-14T08:12:52;101092.09;;;29.34;72.35
35806;BME280;21925;44.608;11.580;2023-06-14T08:15:18;101098.59;;;29.43;72.07
35806;BME280;21925;44.608;11.580;2023-06-14T08:17:44;101098.75;;;29.49;71.30
35806;BME280;21925;44.608;11.580;2023-06-14T08:20:10;101094.63;;;29.32;71.75
35806;BME280;21925;44.608;11.580;2023-06-14T08:22:36;101095.22;;;29.75;71.65
35806;BME280;21925;44.608;11.580;2023-06-14T08:25:03;101106.88;;;30.04;69.53
35806;BME280;21925;44.608;11.580;2023-06-14T08:27:29;101102.66;;;30.08;69.39
35806;BME280;21925;44.608;11.580;2023-06-14T08:29:56;101109.38;;;29.93;68.34
35806;BME280;21925;44.608;11.580;2023-06-14T08:32:23;101103.50;;;29.21;68.36
35806;BME280;21925;44.608;11.580;2023-06-14T08:34:49;101109.22;;;29.88;70.05
35806;BME280;21925;44.608;11.580;2023-06-14T08:37:14;101104.84;;;30.22;70.86
35806;BME280;21925;44.608;11.580;2023-06-14T08:39:40;101094.34;;;31.00;67.97
35806;BME280;21925;44.608;11.580;2023-06-14T08:42:07;101112.97;;;31.24;66.62
35806;BME280;21925;44.608;11.580;2023-06-14T08:44:33;101100.22;;;31.61;67.76
35806;BME280;21925;44.608;11.580;2023-06-14T08:46:59;101096.91;;;31.63;63.77
35806;BME280;21925;44.608;11.580;2023-06-14T08:49:26;101102.59;;;30.62;63.67
35806;BME280;21925;44.608;11.580;2023-06-14T08:51:57;101114.19;;;30.91;62.01
35806;BME280;21925;44.608;11.580;2023-06-14T08:54:27;101113.72;;;31.66;62.32
35806;BME280;21925;44.608;11.580;2023-06-14T08:56:55;101092.44;;;31.06;62.72
35806;BME280;21925;44.608;11.580;2023-06-14T08:59:25;101103.53;;;30.77;64.18
35806;BME280;21925;44.608;11.580;2023-06-14T09:01:53;101107.34;;;30.65;63.16
35806;BME280;21925;44.608;11.580;2023-06-14T09:04:23;101102.59;;;30.71;64.36
35806;BME280;21925;44.608;11.580;2023-06-14T09:06:55;101110.34;;;30.17;60.52
35806;BME280;21925;44.608;11.580;2023-06-14T09:09:21;101115.69;;;29.97;60.56
35806;BME280;21925;44.608;11.580;2023-06-14T09:11:52;101122.31;;;30.57;62.71
35806;BME280;21925;44.608;11.580;2023-06-14T09:14:18;101118.41;;;30.95;60.64
35806;BME280;21925;44.608;11.580;2023-06-14T09:16:44;101117.41;;;31.58;62.03
35806;BME280;21925;44.608;11.580;2023-06-14T09:19:14;101118.50;;;32.07;57.98
35806;BME280;21925;44.608;11.580;2023-06-14T09:21:47;101115.69;;;31.74;59.27
35806;BME280;21925;44.608;11.580;2023-06-14T09:24:14;101096.91;;;32.00;60.80
35806;BME280;21925;44.608;11.580;2023-06-14T09:26:41;101101.06;;;32.37;58.53
35806;BME280;21925;44.608;11.580;2023-06-14T09:29:07;101099.97;;;32.49;56.19
35806;BME280;21925;44.608;11.580;2023-06-14T09:31:35;101107.47;;;32.23;57.59
35806;BME280;21925;44.608;11.580;2023-06-14T09:34:02;101105.75;;;32.26;58.45
35806;BME280;21925;44.608;11.580;2023-06-14T09:36:31;101110.41;;;32.29;57.38
35806;BME280;21925;44.608;11.580;2023-06-14T09:38:59;101102.59;;;32.24;57.54
35806;BME280;21925;44.608;11.580;2023-06-14T09:41:39;101114.69;;;32.76;57.39
35806;BME280;21925;44.608;11.580;2023-06-14T09:44:07;101111.53;;;31.84;54.37
35806;BME280;21925;44.608;11.580;2023-06-14T09:46:34;101104.16;;;32.01;54.71
35806;BME280;21925;44.608;11.580;2023-06-14T09:49:01;101103.66;;;31.88;54.87
35806;BME280;21925;44.608;11.580;2023-06-14T09:51:28;101104.22;;;32.97;55.64
35806;BME280;21925;44.608;11.580;2023-06-14T09:54:00;101099.41;;;33.03;53.32
35806;BME280;21925;44.608;11.580;2023-06-14T09:56:37;101096.25;;;33.29;54.25
35806;BME280;21925;44.608;11.580;2023-06-14T09:59:05;101098.72;;;34.11;53.36
35806;BME280;21925;44.608;11.580;2023-06-14T10:01:34;101095.19;;;34.21;50.33
35806;BME280;21925;44.608;11.580;2023-06-14T10:04:05;101095.88;;;34.56;49.46
35806;BME280;21925;44.608;11.580;2023-06-14T10:06:32;101092.50;;;34.12;49.42
35806;BME280;21925;44.608;11.580;2023-06-14T10:08:59;101087.28;;;34.30;50.95
35806;BME280;21925;44.608;11.580;2023-06-14T10:11:51;101097.00;;;34.95;49.08
35806;BME280;21925;44.608;11.580;2023-06-14T10:14:19;101089.28;;;35.37;49.40
35806;BME280;21925;44.608;11.580;2023-06-14T10:16:56;101093.81;;;35.54;46.15
35806;BME280;21925;44.608;11.580;2023-06-14T10:19:29;101085.38;;;34.47;50.29
35806;BME280;21925;44.608;11.580;2023-06-14T10:22:14;101074.41;;;33.95;51.19
35806;BME280;21925;44.608;11.580;2023-06-14T10:24:44;101089.78;;;34.23;53.02
35806;BME280;21925;44.608;11.580;2023-06-14T10:27:13;101081.47;;;34.19;51.41
35806;BME280;21925;44.608;11.580;2023-06-14T10:32:25;101078.63;;;32.97;52.02
35806;BME280;21925;44.608;11.580;2023-06-14T10:34:55;101084.38;;;33.65;51.93
35806;BME280;21925;44.608;11.580;2023-06-14T10:37:21;101064.19;;;34.23;49.20
35806;BME280;21925;44.608;11.580;2023-06-14T10:39:47;101064.31;;;33.06;50.38
35806;BME280;21925;44.608;11.580;2023-06-14T10:42:13;101074.44;;;32.92;52.08
35806;BME280;21925;44.608;11.580;2023-06-14T10:49:57;101060.78;;;33.99;50.27
35806;BME280;21925;44.608;11.580;2023-06-14T10:52:28;101058.69;;;34.00;50.37
35806;BME280;21925;44.608;11.580;2023-06-14T11:00:14;101060.72;;;35.31;47.31
35806;BME280;21925;44.608;11.580;2023-06-14T11:05:49;101047.13;;;36.15;44.74
35806;BME280;21925;44.608;11.580;2023-06-14T11:11:08;101038.78;;;34.76;46.86
35806;BME280;21925;44.608;11.580;2023-06-14T11:13:36;101037.25;;;33.25;48.12
35806;BME280;21925;44.608;11.580;2023-06-14T11:16:10;101039.97;;;33.93;48.53
35806;BME280;21925;44.608;11.580;2023-06-14T11:18:38;101034.22;;;35.20;48.78
35806;BME280;21925;44.608;11.580;2023-06-14T11:21:03;101030.31;;;35.17;46.88
35806;BME280;21925;44.608;11.580;2023-06-14T11:23:29;101025.38;;;35.12;45.91
35806;BME280;21925;44.608;11.580;2023-06-14T11:25:55;101016.72;;;35.01;48.60
35806;BME280;21925;44.608;11.580;2023-06-14T11:28:21;101011.19;;;35.23;48.20
35806;BME280;21925;44.608;11.580;2023-06-14T11:30:48;101012.66;;;35.55;46.77
35806;BME280;21925;44.608;11.580;2023-06-14T11:33:18;101023.81;;;35.11;45.07
35806;BME280;21925;44.608;11.580;2023-06-14T11:35:46;101020.63;;;35.46;45.84
35806;BME280;21925;44.608;11.580;2023-06-14T11:38:12;101019.50;;;35.74;46.69
35806;BME280;21925;44.608;11.580;2023-06-14T11:40:38;101007.44;;;35.06;46.71
35806;BME280;21925;44.608;11.580;2023-06-14T11:43:04;101021.56;;;34.90;48.64
35806;BME280;21925;44.608;11.580;2023-06-14T11:45:31;101021.72;;;34.25;47.21
35806;BME280;21925;44.608;11.580;2023-06-14T11:47:58;101014.22;;;34.22;47.14
35806;BME280;21925;44.608;11.580;2023-06-14T11:50:25;101016.63;;;34.91;48.11
35806;BME280;21925;44.608;11.580;2023-06-14T11:52:58;101022.00;;;35.14;47.76
35806;BME280;21925;44.608;11.580;2023-06-14T11:55:39;101020.28;;;34.60;48.90
35806;BME280;21925;44.608;11.580;2023-06-14T11:58:06;101021.28;;;35.24;48.35
35806;BME280;21925;44.608;11.580;2023-06-14T12:00:35;101007.56;;;35.81;46.34
35806;BME280;21925;44.608;11.580;2023-06-14T12:03:01;101011.88;;;36.24;48.04
35806;BME280;21925;44.608;11.580;2023-06-14T12:05:26;100999.72;;;36.51;46.87
35806;BME280;21925;44.608;11.580;2023-06-14T12:08:03;101000.66;;;37.35;46.09
35806;BME280;21925;44.608;11.580;2023-06-14T12:10:40;101002.34;;;35.69;46.03
35806;BME280;21925;44.608;11.580;2023-06-14T12:13:09;101002.75;;;36.09;47.42
35806;BME280;21925;44.608;11.580;2023-06-14T12:15:35;101002.31;;;36.70;45.48
35806;BME280;21925;44.608;11.580;2023-06-14T12:18:05;101001.75;;;37.10;46.32
35806;BME280;21925;44.608;11.580;2023-06-14T12:20:32;100995.28;;;36.88;45.23
35806;BME280;21925;44.608;11.580;2023-06-14T12:23:03;100998.94;;;36.67;45.64
35806;BME280;21925;44.608;11.580;2023-06-14T12:25:32;100991.59;;;36.16;47.29
35806;BME280;21925;44.608;11.580;2023-06-14T12:27:59;100994.56;;;35.64;50.52
35806;BME280;21925;44.608;11.580;2023-06-14T12:30:25;100998.19;;;35.64;49.92
35806;BME280;21925;44.608;11.580;2023-06-14T12:32:51;100995.88;;;35.79;50.54
35806;BME280;21925;44.608;11.580;2023-06-14T12:35:19;100991.41;;;35.56;50.72
35806;BME280;21925;44.608;11.580;2023-06-14T12:37:45;100998.94;;;35.59;51.40
35806;BME280;21925;44.608;11.580;2023-06-14T12:40:12;100991.06;;;35.43;51.95
35806;BME280;21925;44.608;11.580;2023-06-14T12:42:39;100993.81;;;35.74;51.85
35806;BME280;21925;44.608;11.580;2023-06-14T12:45:05;100992.38;;;36.17;50.84
35806;BME280;21925;44.608;11.580;2023-06-14T12:47:31;100996.31;;;36.68;51.58
35806;BME280;21925;44.608;11.580;2023-06-14T12:49:57;100996.75;;;36.01;50.56
35806;BME280;21925;44.608;11.580;2023-06-14T12:52:23;100992.66;;;36.41;52.34
35806;BME280;21925;44.608;11.580;2023-06-14T12:54:49;101000.00;;;35.62;51.78
35806;BME280;21925;44.608;11.580;2023-06-14T12:57:14;101005.53;;;35.34;51.34
35806;BME280;21925;44.608;11.580;2023-06-14T12:59:40;101006.06;;;34.97;51.05